createdAt,value
2023-07-31T00:00:30.341Z,100030.72
2023-07-31T00:01:32.814Z,100027.09
2023-07-31T00:02:35.198Z,100034.34
2023-07-31T00:03:37.683Z,100017.91
2023-07-31T00:04:40.121Z,100035.47
2023-07-31T00:05:42.551Z,100018.72
2023-07-31T00:06:44.920Z,100031.84
2023-07-31T00:07:47.559Z,100020.72
2023-07-31T00:08:50.007Z,100023.19
2023-07-31T00:09:52.392Z,100012.84
2023-07-31T00:10:54.818Z,100017.28
2023-07-31T00:11:57.636Z,100018.41
2023-07-31T00:13:00.013Z,100013.38
2023-07-31T00:14:02.369Z,100015.34
2023-07-31T00:15:08.219Z,100016.16
2023-07-31T00:16:11.717Z,100011.41
2023-07-31T00:17:14.296Z,100021.44
2023-07-31T00:18:16.998Z,100014.72
2023-07-31T00:19:19.462Z,100016.69
2023-07-31T00:20:23.009Z,100016.69
2023-07-31T00:21:25.473Z,100018.31
2023-07-31T00:22:30.244Z,100020.28
2023-07-31T00:23:32.583Z,100008.84
2023-07-31T00:24:34.990Z,100018.03
2023-07-31T00:25:37.277Z,100015.53
2023-07-31T00:26:39.881Z,100018.84
2023-07-31T00:27:45.784Z,100017.19
2023-07-31T00:28:48.196Z,100013.28
2023-07-31T00:29:50.699Z,100014.09
2023-07-31T00:30:53.076Z,100012.97
2023-07-31T00:31:55.412Z,100013.81
2023-07-31T00:32:57.807Z,100008.22
2023-07-31T00:34:00.187Z,100011.03
2023-07-31T00:35:03.141Z,99999.56
2023-07-31T00:36:07.367Z,100014.31
2023-07-31T00:37:09.946Z,99998.44
2023-07-31T00:38:12.329Z,100008.41
2023-07-31T00:39:16.016Z,100000.06
2023-07-31T00:40:18.425Z,99996.13
2023-07-31T00:41:21.914Z,99998.09
2023-07-31T00:42:26.026Z,100001.41
2023-07-31T00:43:28.477Z,100000.59
2023-07-31T00:44:30.944Z,100000.59
2023-07-31T00:45:33.957Z,99997.47
2023-07-31T00:46:37.750Z,99998.28
2023-07-31T00:47:40.642Z,99994.69
2023-07-31T00:48:43.118Z,99994.38
2023-07-31T00:49:45.650Z,99996.88
2023-07-31T00:50:50.729Z,99997.16
2023-07-31T00:51:53.548Z,99997.16
2023-07-31T00:52:55.976Z,99994.38
2023-07-31T00:53:59.273Z,99997.72
2023-07-31T00:55:01.740Z,99994.94
2023-07-31T00:56:07.448Z,99990.16
2023-07-31T00:57:10.154Z,99982.66
2023-07-31T00:58:12.564Z,99995.75
2023-07-31T00:59:15.247Z,99992.16
2023-07-31T01:00:17.614Z,99994.63
2023-07-31T01:01:20.671Z,99992.66
2023-07-31T01:02:23.139Z,99990.69
2023-07-31T01:03:25.906Z,99997.94
2023-07-31T01:04:28.633Z,99994.31
2023-07-31T01:05:40.812Z,99985.94
2023-07-31T01:06:50.470Z,99984.00
2023-07-31T01:08:01.771Z,99984.00
2023-07-31T01:09:27.019Z,99984.00
2023-07-31T01:10:35.252Z,99988.41
2023-07-31T01:11:49.766Z,99981.69
2023-07-31T01:12:54.700Z,99980.88
2023-07-31T01:13:58.318Z,99972.53
2023-07-31T01:15:07.535Z,99979.75
2023-07-31T01:16:12.139Z,99976.13
2023-07-31T01:17:14.935Z,99976.13
2023-07-31T01:18:17.576Z,99967.75
2023-07-31T01:19:24.625Z,99971.38
2023-07-31T01:20:29.318Z,99971.69
2023-07-31T01:21:38.152Z,99972.53
2023-07-31T01:23:13.915Z,99966.94
2023-07-31T01:24:29.971Z,99968.88
2023-07-31T01:25:47.699Z,99978.09
2023-07-31T01:27:07.776Z,99972.84
2023-07-31T01:28:14.955Z,99977.25
2023-07-31T01:29:31.624Z,99967.25
2023-07-31T01:30:38.987Z,99970.88
2023-07-31T01:31:43.320Z,99974.47
2023-07-31T01:32:49.238Z,99966.09
2023-07-31T01:33:54.011Z,99969.72
2023-07-31T01:34:59.569Z,99970.53
2023-07-31T01:36:02.358Z,99968.59
2023-07-31T01:37:05.063Z,99965.28
2023-07-31T01:38:07.642Z,99972.53
2023-07-31T01:39:10.083Z,99968.88
2023-07-31T01:40:12.862Z,99966.09
2023-07-31T01:41:17.632Z,99963.31
2023-07-31T01:42:20.003Z,99961.69
2023-07-31T01:43:22.365Z,99966.09
2023-07-31T01:44:25.924Z,99963.03
2023-07-31T01:45:29.393Z,99961.88
2023-07-31T01:46:32.344Z,99968.59
2023-07-31T01:47:34.850Z,99972.19
2023-07-31T01:48:38.207Z,99971.06
2023-07-31T01:49:40.494Z,99964.66
2023-07-31T01:50:42.958Z,99965.50
2023-07-31T01:51:45.459Z,99967.16
2023-07-31T01:52:47.852Z,99957.94
2023-07-31T01:53:51.596Z,99962.38
2023-07-31T01:54:53.933Z,99961.25
2023-07-31T01:55:56.483Z,99954.56
2023-07-31T01:56:58.891Z,99955.69
2023-07-31T01:58:01.650Z,99957.34
2023-07-31T01:59:04.012Z,99965.06
2023-07-31T02:00:07.083Z,99963.41
2023-07-31T02:01:14.323Z,99953.91
2023-07-31T02:02:17.349Z,99958.34
2023-07-31T02:03:19.824Z,99954.41
2023-07-31T02:04:22.371Z,99954.13
2023-07-31T02:05:24.769Z,99949.34
2023-07-31T02:06:28.410Z,99957.72
2023-07-31T02:07:31.197Z,99955.47
2023-07-31T02:08:35.052Z,99959.88
2023-07-31T02:09:37.536Z,99961.53
2023-07-31T02:10:39.910Z,99958.75
2023-07-31T02:11:42.841Z,99953.69
2023-07-31T02:12:45.988Z,99954.50
2023-07-31T02:13:48.451Z,99953.38
2023-07-31T02:14:50.971Z,99949.44
2023-07-31T02:15:55.066Z,99951.91
2023-07-31T02:16:57.466Z,99954.72
2023-07-31T02:18:00.571Z,99947.16
2023-07-31T02:19:03.010Z,99949.66
2023-07-31T02:20:06.168Z,99946.03
2023-07-31T02:21:08.617Z,99947.38
2023-07-31T02:22:10.960Z,99944.25
2023-07-31T02:23:13.342Z,99949.53
2023-07-31T02:24:15.739Z,99946.44
2023-07-31T02:25:18.301Z,99946.75
2023-07-31T02:26:21.614Z,99949.22
2023-07-31T02:27:28.473Z,99947.78
2023-07-31T02:28:31.603Z,99943.81
2023-07-31T02:29:35.282Z,99948.25
2023-07-31T02:30:37.741Z,99946.00
2023-07-31T02:31:42.619Z,99943.69
2023-07-31T02:32:45.173Z,99945.69
2023-07-31T02:33:47.678Z,99947.34
2023-07-31T02:34:50.158Z,99947.00
2023-07-31T02:35:53.379Z,99940.31
2023-07-31T02:36:57.251Z,99944.75
2023-07-31T02:38:00.522Z,99940.78
2023-07-31T02:39:03.043Z,99942.44
2023-07-31T02:40:05.838Z,99951.34
2023-07-31T02:41:08.362Z,99944.09
2023-07-31T02:42:10.665Z,99949.69
2023-07-31T02:43:13.331Z,99941.00
2023-07-31T02:44:15.772Z,99942.66
2023-07-31T02:45:18.132Z,99940.66
2023-07-31T02:46:21.751Z,99939.22
2023-07-31T02:47:24.387Z,99949.25
2023-07-31T02:48:26.808Z,99945.31
2023-07-31T02:49:29.180Z,99948.13
2023-07-31T02:50:33.276Z,99942.84
2023-07-31T02:51:35.891Z,99939.75
2023-07-31T02:52:38.842Z,99946.13
2023-07-31T02:53:42.143Z,99932.19
2023-07-31T02:54:45.339Z,99934.66
2023-07-31T02:55:48.274Z,99941.06
2023-07-31T02:56:50.729Z,99946.34
2023-07-31T02:57:53.892Z,99944.34
2023-07-31T02:58:57.332Z,99942.91
2023-07-31T03:00:01.023Z,99940.94
2023-07-31T03:01:03.688Z,99939.28
2023-07-31T03:02:06.146Z,99943.75
2023-07-31T03:03:08.720Z,99937.84
2023-07-31T03:04:12.229Z,99937.03
2023-07-31T03:05:14.892Z,99939.81
2023-07-31T03:06:17.328Z,99937.84
2023-07-31T03:07:19.838Z,99946.22
2023-07-31T03:08:22.747Z,99947.03
2023-07-31T03:09:25.649Z,99939.81
2023-07-31T03:10:27.985Z,99954.59
2023-07-31T03:11:30.396Z,99941.44
2023-07-31T03:12:32.837Z,99940.31
2023-07-31T03:13:35.195Z,99942.28
2023-07-31T03:14:37.717Z,99948.69
2023-07-31T03:15:43.729Z,99958.72
2023-07-31T03:16:47.630Z,99959.84
2023-07-31T03:17:50.044Z,99948.34
2023-07-31T03:18:52.438Z,99952.31
2023-07-31T03:19:54.794Z,99956.44
2023-07-31T03:20:57.197Z,99953.13
2023-07-31T03:22:03.023Z,99948.34
2023-07-31T03:23:05.497Z,99952.00
2023-07-31T03:24:07.914Z,99955.28
2023-07-31T03:25:11.746Z,99956.94
2023-07-31T03:26:14.936Z,99954.47
2023-07-31T03:27:17.376Z,99946.09
2023-07-31T03:28:19.907Z,99954.13
2023-07-31T03:29:24.722Z,99956.13
2023-07-31T03:30:28.270Z,99962.03
2023-07-31T03:31:30.657Z,99956.94
2023-07-31T03:32:34.230Z,99956.13
2023-07-31T03:33:36.545Z,99960.56
2023-07-31T03:34:39.066Z,99959.72
2023-07-31T03:35:42.083Z,99954.13
2023-07-31T03:36:44.677Z,99956.44
2023-07-31T03:37:46.976Z,99957.25
2023-07-31T03:38:49.308Z,99961.69
2023-07-31T03:39:51.666Z,99962.84
2023-07-31T03:40:54.212Z,99950.84
2023-07-31T03:41:56.622Z,99960.84
2023-07-31T03:42:58.993Z,99959.22
2023-07-31T03:44:01.409Z,99951.66
2023-07-31T03:45:04.149Z,99950.84
2023-07-31T03:46:06.523Z,99958.38
2023-07-31T03:47:08.956Z,99949.19
2023-07-31T03:48:13.515Z,99952.81
2023-07-31T03:49:15.992Z,99950.66
2023-07-31T03:50:18.302Z,99953.44
2023-07-31T03:51:22.298Z,99950.66
2023-07-31T03:52:25.776Z,99951.78
2023-07-31T03:53:28.160Z,99959.34
2023-07-31T03:54:31.829Z,99957.69
2023-07-31T03:55:34.262Z,99952.13
2023-07-31T03:56:39.762Z,99951.28
2023-07-31T03:57:42.403Z,99948.81
2023-07-31T03:58:44.958Z,99950.25
2023-07-31T03:59:47.361Z,99946.66
2023-07-31T04:00:49.825Z,99957.81
2023-07-31T04:01:52.288Z,99958.63
2023-07-31T04:02:54.772Z,99959.47
2023-07-31T04:03:57.332Z,99954.50
2023-07-31T04:04:59.802Z,99956.47
2023-07-31T04:06:02.190Z,99950.09
2023-07-31T04:07:04.823Z,99950.38
2023-07-31T04:08:07.313Z,99951.53
2023-07-31T04:09:09.622Z,99928.38
2023-07-31T04:10:13.638Z,99933.16
2023-07-31T04:11:16.543Z,99942.31
2023-07-31T04:12:19.002Z,99939.03
2023-07-31T04:13:23.758Z,99941.00
2023-07-31T04:14:26.138Z,99936.53
2023-07-31T04:15:28.509Z,99938.84
2023-07-31T04:16:30.944Z,99936.06
2023-07-31T04:17:33.415Z,99939.97
2023-07-31T04:18:35.875Z,99938.00
2023-07-31T04:19:38.258Z,99932.41
2023-07-31T04:20:40.646Z,99930.78
2023-07-31T04:21:44.315Z,99934.72
2023-07-31T04:22:47.069Z,99939.16
2023-07-31T04:23:49.648Z,99930.28
2023-07-31T04:24:52.006Z,99927.47
2023-07-31T04:25:54.368Z,99936.66
2023-07-31T04:26:57.495Z,99927.81
2023-07-31T04:27:59.849Z,99927.81
2023-07-31T04:29:02.290Z,99927.81
2023-07-31T04:30:05.240Z,99926.97
2023-07-31T04:31:07.686Z,99921.38
2023-07-31T04:32:10.050Z,99932.53
2023-07-31T04:33:12.429Z,99915.00
2023-07-31T04:34:15.325Z,99920.56
2023-07-31T04:35:18.805Z,99920.03
2023-07-31T04:36:21.136Z,99916.44
2023-07-31T04:37:23.606Z,99910.84
2023-07-31T04:38:25.980Z,99919.22
2023-07-31T04:39:28.376Z,99910.03
2023-07-31T04:40:30.801Z,99904.47
2023-07-31T04:41:33.168Z,99917.25
2023-07-31T04:42:35.923Z,99909.19
2023-07-31T04:43:40.465Z,99909.19
2023-07-31T04:44:43.712Z,99906.41
2023-07-31T04:45:49.611Z,99906.41
2023-07-31T04:46:52.323Z,99898.03
2023-07-31T04:47:55.271Z,99902.50
2023-07-31T04:48:58.180Z,99898.88
2023-07-31T04:50:00.658Z,99898.88
2023-07-31T04:51:02.994Z,99896.91
2023-07-31T04:52:05.956Z,99895.25
2023-07-31T04:53:09.786Z,99903.63
2023-07-31T04:54:13.862Z,99898.38
2023-07-31T04:55:16.999Z,99902.50
2023-07-31T04:56:19.369Z,99900.84
2023-07-31T04:57:22.876Z,99900.03
2023-07-31T04:58:26.527Z,99898.03
2023-07-31T04:59:28.854Z,99891.66
2023-07-31T05:00:31.290Z,99896.09
2023-07-31T05:01:34.349Z,99906.41
2023-07-31T05:02:36.732Z,99905.28
2023-07-31T05:03:39.262Z,99893.31
2023-07-31T05:04:43.127Z,99892.97
2023-07-31T05:05:45.617Z,99893.31
2023-07-31T05:06:48.148Z,99896.59
2023-07-31T05:07:51.365Z,99889.34
2023-07-31T05:08:54.312Z,99891.84
2023-07-31T05:09:58.905Z,99889.88
2023-07-31T05:11:01.527Z,99891.84
2023-07-31T05:12:06.199Z,99889.06
2023-07-31T05:13:08.626Z,99894.63
2023-07-31T05:14:11.576Z,99892.34
2023-07-31T05:15:14.769Z,99880.69
2023-07-31T05:16:19.152Z,99888.75
2023-07-31T05:17:21.611Z,99892.66
2023-07-31T05:18:24.096Z,99887.91
2023-07-31T05:19:26.501Z,99877.91
2023-07-31T05:20:29.046Z,99880.69
2023-07-31T05:21:31.519Z,99884.28
2023-07-31T05:22:33.911Z,99888.75
2023-07-31T05:23:36.259Z,99883.97
2023-07-31T05:24:38.687Z,99885.63
2023-07-31T05:25:41.057Z,99882.50
2023-07-31T05:26:43.388Z,99880.56
2023-07-31T05:27:45.854Z,99878.59
2023-07-31T05:28:48.253Z,99882.72
2023-07-31T05:29:50.537Z,99871.56
2023-07-31T05:30:53.090Z,99877.13
2023-07-31T05:31:55.455Z,99871.22
2023-07-31T05:32:58.085Z,99869.28
2023-07-31T05:34:00.511Z,99877.31
2023-07-31T05:35:02.936Z,99882.25
2023-07-31T05:36:05.614Z,99884.72
2023-07-31T05:37:08.109Z,99883.91
2023-07-31T05:38:10.531Z,99884.72
2023-07-31T05:39:13.700Z,99881.63
2023-07-31T05:40:16.458Z,99884.13
2023-07-31T05:41:20.123Z,99884.13
2023-07-31T05:42:22.617Z,99876.22
2023-07-31T05:43:25.064Z,99881.81
2023-07-31T05:44:27.722Z,99884.28
2023-07-31T05:45:30.049Z,99885.13
2023-07-31T05:46:33.068Z,99881.50
2023-07-31T05:47:35.725Z,99887.91
2023-07-31T05:48:38.132Z,99872.50
2023-07-31T05:49:40.475Z,99875.28
2023-07-31T05:50:44.753Z,99886.13
2023-07-31T05:51:47.069Z,99886.13
2023-07-31T05:52:49.576Z,99885.00
2023-07-31T05:53:51.946Z,99880.22
2023-07-31T05:54:54.335Z,99874.31
2023-07-31T05:55:56.713Z,99875.16
2023-07-31T05:56:59.244Z,99879.09
2023-07-31T05:58:01.688Z,99886.00
2023-07-31T05:59:04.213Z,99876.81
2023-07-31T06:00:07.879Z,99884.88
2023-07-31T06:01:10.389Z,99878.16
2023-07-31T06:02:12.910Z,99872.25
2023-07-31T06:03:15.622Z,99878.63
2023-07-31T06:04:18.128Z,99868.59
2023-07-31T06:05:20.539Z,99876.69
2023-07-31T06:06:22.853Z,99872.25
2023-07-31T06:07:25.221Z,99880.28
2023-07-31T06:08:27.753Z,99866.81
2023-07-31T06:09:30.105Z,99869.63
2023-07-31T06:10:32.629Z,99867.38
2023-07-31T06:11:34.966Z,99884.63
2023-07-31T06:12:38.615Z,99875.41
2023-07-31T06:13:43.830Z,99872.63
2023-07-31T06:14:46.595Z,99880.88
2023-07-31T06:15:49.058Z,99878.28
2023-07-31T06:16:51.566Z,99878.47
2023-07-31T06:17:54.503Z,99875.66
2023-07-31T06:18:58.173Z,99872.56
2023-07-31T06:20:00.531Z,99881.44
2023-07-31T06:21:03.603Z,99877.47
2023-07-31T06:22:06.328Z,99876.34
2023-07-31T06:23:08.747Z,99876.03
2023-07-31T06:24:11.154Z,99876.88
2023-07-31T06:25:15.580Z,99879.34
2023-07-31T06:26:18.828Z,99888.53
2023-07-31T06:27:21.144Z,99886.88
2023-07-31T06:28:29.681Z,99875.41
2023-07-31T06:29:32.131Z,99885.72
2023-07-31T06:30:34.507Z,99879.00
2023-07-31T06:31:37.095Z,99886.56
2023-07-31T06:32:39.528Z,99882.94
2023-07-31T06:33:41.896Z,99882.44
2023-07-31T06:34:44.240Z,99893.63
2023-07-31T06:35:47.071Z,99886.06
2023-07-31T06:36:49.421Z,99877.69
2023-07-31T06:37:52.394Z,99876.88
2023-07-31T06:38:54.825Z,99876.88
2023-07-31T06:39:57.170Z,99888.03
2023-07-31T06:40:59.528Z,99876.03
2023-07-31T06:42:04.551Z,99876.03
2023-07-31T06:43:10.277Z,99876.03
2023-07-31T06:44:12.780Z,99874.06
2023-07-31T06:45:15.424Z,99872.91
2023-07-31T06:46:17.951Z,99871.28
2023-07-31T06:47:20.380Z,99872.09
2023-07-31T06:48:23.253Z,99871.28
2023-07-31T06:49:26.049Z,99869.28
2023-07-31T06:50:38.311Z,99866.50
2023-07-31T06:51:40.812Z,99874.56
2023-07-31T06:52:43.228Z,99874.56
2023-07-31T06:53:46.517Z,99866.50
2023-07-31T06:55:04.190Z,99868.97
2023-07-31T06:56:06.550Z,99879.00
2023-07-31T06:57:09.356Z,99875.41
2023-07-31T06:58:11.739Z,99881.47
2023-07-31T06:59:14.064Z,99883.44
2023-07-31T07:00:17.333Z,99885.09
2023-07-31T07:01:19.812Z,99880.00
2023-07-31T07:02:22.293Z,99881.97
2023-07-31T07:03:24.714Z,99878.88
2023-07-31T07:04:27.952Z,99886.44
2023-07-31T07:05:30.756Z,99879.38
2023-07-31T07:06:33.175Z,99884.63
2023-07-31T07:07:37.006Z,99879.06
2023-07-31T07:08:39.443Z,99882.34
2023-07-31T07:09:41.877Z,99879.25
2023-07-31T07:10:44.360Z,99884.00
2023-07-31T07:11:46.780Z,99880.88
2023-07-31T07:12:49.978Z,99884.19
2023-07-31T07:13:52.746Z,99885.84
2023-07-31T07:14:55.252Z,99876.31
2023-07-31T07:15:57.587Z,99881.91
2023-07-31T07:17:00.019Z,99886.00
2023-07-31T07:18:03.004Z,99879.25
2023-07-31T07:19:05.638Z,99881.72
2023-07-31T07:20:09.299Z,99882.25
2023-07-31T07:21:15.822Z,99886.69
2023-07-31T07:22:19.177Z,99889.97
2023-07-31T07:23:22.226Z,99884.38
2023-07-31T07:24:24.593Z,99876.50
2023-07-31T07:25:27.080Z,99888.19
2023-07-31T07:26:29.581Z,99879.50
2023-07-31T07:27:32.098Z,99876.03
2023-07-31T07:28:34.559Z,99879.66
2023-07-31T07:29:37.036Z,99883.78
2023-07-31T07:30:39.406Z,99877.88
2023-07-31T07:31:41.854Z,99876.69
2023-07-31T07:32:45.015Z,99880.00
2023-07-31T07:33:48.953Z,99872.63
2023-07-31T07:34:51.381Z,99882.66
2023-07-31T07:35:53.696Z,99874.44
2023-07-31T07:36:56.276Z,99879.72
2023-07-31T07:37:59.222Z,99869.03
2023-07-31T07:39:01.617Z,99872.31
2023-07-31T07:40:04.346Z,99876.47
2023-07-31T07:41:06.779Z,99870.88
2023-07-31T07:42:09.085Z,99873.84
2023-07-31T07:43:11.629Z,99872.72
2023-07-31T07:44:14.758Z,99879.63
2023-07-31T07:45:17.521Z,99880.94
2023-07-31T07:46:19.888Z,99881.44
2023-07-31T07:47:22.339Z,99874.38
2023-07-31T07:48:26.367Z,99881.28
2023-07-31T07:49:28.755Z,99885.06
2023-07-31T07:50:31.239Z,99883.91
2023-07-31T07:51:33.926Z,99876.84
2023-07-31T07:52:36.269Z,99880.97
2023-07-31T07:53:39.874Z,99889.03
2023-07-31T07:54:42.335Z,99887.06
2023-07-31T07:55:44.753Z,99887.53
2023-07-31T07:56:47.299Z,99888.88
2023-07-31T07:57:51.544Z,99885.75
2023-07-31T07:58:55.489Z,99891.03
2023-07-31T07:59:57.910Z,99889.56
2023-07-31T08:01:00.396Z,99884.44
2023-07-31T08:02:02.954Z,99882.47
2023-07-31T08:03:05.619Z,99887.75
2023-07-31T08:04:08.143Z,99887.41
2023-07-31T08:05:10.736Z,99885.94
2023-07-31T08:06:13.344Z,99889.22
2023-07-31T08:07:15.777Z,99888.91
2023-07-31T08:08:18.454Z,99893.31
2023-07-31T08:09:21.312Z,99890.22
2023-07-31T08:10:23.726Z,99901.56
2023-07-31T08:11:26.261Z,99906.50
2023-07-31T08:12:28.600Z,99893.34
2023-07-31T08:13:31.107Z,99895.78
2023-07-31T08:14:33.652Z,99887.09
2023-07-31T08:15:36.085Z,99896.81
2023-07-31T08:16:38.848Z,99890.53
2023-07-31T08:17:41.638Z,99889.06
2023-07-31T08:18:44.475Z,99898.28
2023-07-31T08:19:47.684Z,99894.00
2023-07-31T08:20:50.414Z,99886.09
2023-07-31T08:21:53.559Z,99882.97
2023-07-31T08:22:57.352Z,99886.28
2023-07-31T08:23:59.669Z,99898.31
2023-07-31T08:25:02.152Z,99887.63
2023-07-31T08:26:04.552Z,99891.22
2023-07-31T08:27:07.720Z,99886.94
2023-07-31T08:28:10.124Z,99888.59
2023-07-31T08:29:12.588Z,99884.31
2023-07-31T08:30:15.002Z,99885.97
2023-07-31T08:31:17.469Z,99886.78
2023-07-31T08:32:19.998Z,99883.31
2023-07-31T08:33:22.682Z,99889.75
2023-07-31T08:34:26.177Z,99884.94
2023-07-31T08:35:29.670Z,99881.00
2023-07-31T08:36:32.005Z,99881.16
2023-07-31T08:37:34.430Z,99886.78
2023-07-31T08:38:36.875Z,99880.00
2023-07-31T08:39:41.168Z,99886.09
2023-07-31T08:40:43.655Z,99888.56
2023-07-31T08:41:45.985Z,99882.16
2023-07-31T08:42:50.514Z,99885.75
2023-07-31T08:43:56.490Z,99887.06
2023-07-31T08:45:00.751Z,99883.13
2023-07-31T08:46:03.991Z,99881.97
2023-07-31T08:47:07.456Z,99880.81
2023-07-31T08:48:13.204Z,99882.78
2023-07-31T08:49:16.152Z,99882.44
2023-07-31T08:50:22.340Z,99878.03
2023-07-31T08:51:24.897Z,99881.63
2023-07-31T08:52:27.353Z,99878.84
2023-07-31T08:53:29.941Z,99884.44
2023-07-31T08:54:34.491Z,99886.09
2023-07-31T08:55:38.640Z,99879.66
2023-07-31T08:56:41.760Z,99876.84
2023-07-31T08:57:44.831Z,99880.47
2023-07-31T08:58:48.645Z,99872.91
2023-07-31T08:59:51.858Z,99882.13
2023-07-31T09:00:56.749Z,99883.63
2023-07-31T09:02:07.707Z,99878.84
2023-07-31T09:03:14.359Z,99883.28
2023-07-31T09:04:19.924Z,99889.69
2023-07-31T09:05:22.916Z,99882.13
2023-07-31T09:06:28.983Z,99880.16
2023-07-31T09:07:33.978Z,99877.84
2023-07-31T09:08:36.732Z,99881.47
2023-07-31T09:09:39.497Z,99876.66
2023-07-31T09:10:47.644Z,99883.44
2023-07-31T09:11:51.123Z,99879.81
2023-07-31T09:12:54.113Z,99879.81
2023-07-31T09:13:58.784Z,99875.34
2023-07-31T09:15:02.281Z,99879.34
2023-07-31T09:16:05.228Z,99878.16
2023-07-31T09:17:07.728Z,99877.69
2023-07-31T09:18:10.928Z,99871.41
2023-07-31T09:19:13.291Z,99879.34
2023-07-31T09:20:16.847Z,99871.75
2023-07-31T09:21:19.332Z,99873.75
2023-07-31T09:22:36.374Z,99870.09
2023-07-31T09:23:47.447Z,99873.75
2023-07-31T09:24:50.148Z,99868.94
2023-07-31T09:25:52.486Z,99861.34
2023-07-31T09:26:57.292Z,99866.16
2023-07-31T09:28:01.574Z,99866.97
2023-07-31T09:29:09.780Z,99865.34
2023-07-31T09:30:12.176Z,99868.94
2023-07-31T09:31:14.688Z,99861.34
2023-07-31T09:32:18.648Z,99867.78
2023-07-31T09:33:21.256Z,99861.03
2023-07-31T09:34:38.029Z,99852.66
2023-07-31T09:35:42.273Z,99851.47
2023-07-31T09:36:50.728Z,99861.84
2023-07-31T09:37:54.399Z,99860.72
2023-07-31T09:39:02.453Z,99859.88
2023-07-31T09:40:05.369Z,99857.91
2023-07-31T09:41:09.987Z,99853.13
2023-07-31T09:42:12.735Z,99853.91
2023-07-31T09:43:19.315Z,99852.78
2023-07-31T09:44:22.707Z,99857.22
2023-07-31T09:45:32.147Z,99853.63
2023-07-31T09:46:44.047Z,99855.22
2023-07-31T09:47:52.826Z,99849.31
2023-07-31T09:49:10.973Z,99859.34
2023-07-31T09:50:13.361Z,99861.00
2023-07-31T09:51:15.765Z,99855.41
2023-07-31T09:52:18.110Z,99859.84
2023-07-31T09:53:20.450Z,99865.13
2023-07-31T09:54:22.963Z,99857.56
2023-07-31T09:55:25.478Z,99854.75
2023-07-31T09:56:27.962Z,99858.34
2023-07-31T09:57:32.809Z,99863.28
2023-07-31T09:58:37.204Z,99863.63
2023-07-31T09:59:39.843Z,99858.84
2023-07-31T10:00:46.186Z,99852.06
2023-07-31T10:01:50.158Z,99855.38
2023-07-31T10:02:55.076Z,99852.56
2023-07-31T10:03:58.538Z,99853.38
2023-07-31T10:05:04.158Z,99849.44
2023-07-31T10:06:09.180Z,99846.28
2023-07-31T10:07:12.341Z,99842.34
2023-07-31T10:08:17.398Z,99838.72
2023-07-31T10:09:20.955Z,99848.78
2023-07-31T10:10:23.966Z,99844.00
2023-07-31T10:11:28.853Z,99845.63
2023-07-31T10:12:33.608Z,99843.66
2023-07-31T10:13:37.803Z,99836.91
2023-07-31T10:14:42.511Z,99838.53
2023-07-31T10:15:45.378Z,99842.16
2023-07-31T10:16:49.381Z,99831.75
2023-07-31T10:17:53.053Z,99830.94
2023-07-31T10:18:55.886Z,99840.16
2023-07-31T10:20:04.680Z,99839.84
2023-07-31T10:21:07.436Z,99830.59
2023-07-31T10:22:12.638Z,99826.66
2023-07-31T10:23:17.249Z,99831.56
2023-07-31T10:24:19.959Z,99841.63
2023-07-31T10:25:23.617Z,99833.22
2023-07-31T10:26:26.607Z,99826.97
2023-07-31T10:27:29.069Z,99826.97
2023-07-31T10:28:34.091Z,99824.63
2023-07-31T10:29:39.058Z,99826.28
2023-07-31T10:30:42.468Z,99829.59
2023-07-31T10:31:46.709Z,99822.00
2023-07-31T10:32:51.573Z,99810.81
2023-07-31T10:33:55.562Z,99816.91
2023-07-31T10:34:58.754Z,99825.78
2023-07-31T10:36:21.053Z,99823.78
2023-07-31T10:37:25.247Z,99822.63
2023-07-31T10:38:27.641Z,99825.09
2023-07-31T10:39:38.268Z,99813.06
2023-07-31T10:40:40.943Z,99805.81
2023-07-31T10:41:44.520Z,99815.88
2023-07-31T10:42:59.230Z,99807.97
2023-07-31T10:44:02.868Z,99805.63
2023-07-31T10:45:08.102Z,99805.28
2023-07-31T10:46:14.558Z,99814.19
2023-07-31T10:47:18.414Z,99813.84
2023-07-31T10:48:20.712Z,99801.81
2023-07-31T10:49:23.160Z,99797.84
2023-07-31T10:50:25.657Z,99817.13
2023-07-31T10:51:38.866Z,99807.56
2023-07-31T10:52:42.232Z,99814.00
2023-07-31T10:53:44.631Z,99802.94
2023-07-31T10:54:47.191Z,99806.53
2023-07-31T10:55:53.049Z,99808.69
2023-07-31T10:56:55.393Z,99801.88
2023-07-31T10:58:07.473Z,99811.59
2023-07-31T10:59:13.934Z,99806.50
2023-07-31T11:00:21.583Z,99802.53
2023-07-31T11:01:23.962Z,99808.59
2023-07-31T11:02:28.665Z,99794.72
2023-07-31T11:03:46.044Z,99798.84
2023-07-31T11:05:07.369Z,99792.06
2023-07-31T11:06:10.549Z,99794.53
2023-07-31T11:07:14.596Z,99797.81
2023-07-31T11:08:21.836Z,99797.47
2023-07-31T11:09:24.445Z,99799.94
2023-07-31T11:10:26.935Z,99801.59
2023-07-31T11:11:29.297Z,99795.63
2023-07-31T11:12:34.357Z,99794.78
2023-07-31T11:13:53.235Z,99787.69
2023-07-31T11:14:58.201Z,99788.88
2023-07-31T11:16:01.479Z,99789.69
2023-07-31T11:17:08.398Z,99787.69
2023-07-31T11:18:11.794Z,99787.69
2023-07-31T11:19:14.077Z,99785.38
2023-07-31T11:20:16.420Z,99789.81
2023-07-31T11:21:25.064Z,99785.84
2023-07-31T11:22:28.426Z,99790.78
2023-07-31T11:23:32.034Z,99784.34
2023-07-31T11:24:35.568Z,99789.63
2023-07-31T11:25:39.893Z,99791.72
2023-07-31T11:26:55.607Z,99792.56
2023-07-31T11:27:58.491Z,99796.19
2023-07-31T11:29:00.931Z,99801.44
2023-07-31T11:30:04.412Z,99791.53
2023-07-31T11:31:10.050Z,99794.31
2023-07-31T11:32:18.440Z,99792.81
2023-07-31T11:33:20.908Z,99793.34
2023-07-31T11:34:23.207Z,99787.38
2023-07-31T11:35:27.085Z,99788.69
2023-07-31T11:36:29.715Z,99772.31
2023-07-31T11:37:42.570Z,99777.59
2023-07-31T11:38:45.192Z,99769.63
2023-07-31T11:40:03.424Z,99774.56
2023-07-31T11:41:06.193Z,99769.41
2023-07-31T11:42:08.600Z,99768.25
2023-07-31T11:43:12.792Z,99761.13
2023-07-31T11:44:27.050Z,99767.22
2023-07-31T11:45:31.137Z,99764.53
2023-07-31T11:46:34.219Z,99763.88
2023-07-31T11:47:39.045Z,99762.34
2023-07-31T11:48:41.695Z,99760.84
2023-07-31T11:49:45.161Z,99761.31
2023-07-31T11:50:48.337Z,99754.19
2023-07-31T11:51:50.901Z,99759.94
2023-07-31T11:53:00.045Z,99754.44
2023-07-31T11:54:04.581Z,99752.56
2023-07-31T11:55:10.945Z,99757.13
2023-07-31T11:56:17.058Z,99753.66
2023-07-31T11:57:21.144Z,99751.78
2023-07-31T11:58:23.728Z,99748.25
2023-07-31T11:59:26.210Z,99744.78
2023-07-31T12:00:28.897Z,99749.31
2023-07-31T12:01:33.867Z,99743.88
2023-07-31T12:02:39.473Z,99740.81
2023-07-31T12:03:44.057Z,99749.03
2023-07-31T12:04:47.951Z,99738.72
2023-07-31T12:05:50.347Z,99738.50
2023-07-31T12:06:57.720Z,99732.63
2023-07-31T12:08:01.278Z,99740.47
2023-07-31T12:09:07.599Z,99738.16
2023-07-31T12:10:10.129Z,99735.91
2023-07-31T12:11:12.616Z,99729.25
2023-07-31T12:12:21.106Z,99731.47
2023-07-31T12:13:27.900Z,99724.44
2023-07-31T12:14:30.788Z,99729.78
2023-07-31T12:15:39.023Z,99726.72
2023-07-31T12:16:41.773Z,99727.72
2023-07-31T12:17:49.038Z,99723.81
2023-07-31T12:18:51.932Z,99721.94
2023-07-31T12:19:54.258Z,99716.41
2023-07-31T12:21:01.840Z,99715.34
2023-07-31T12:22:16.572Z,99713.47
2023-07-31T12:23:32.263Z,99713.56
2023-07-31T12:24:36.712Z,99717.31
2023-07-31T12:25:39.075Z,99712.13
2023-07-31T12:26:41.574Z,99721.84
2023-07-31T12:27:47.122Z,99716.81
2023-07-31T12:28:51.664Z,99704.00